createdAt,value
2022-11-14T00:00:53.587Z,99350.19
2022-11-14T00:02:16.040Z,99341.88
2022-11-14T00:03:36.667Z,99344.22
2022-11-14T00:04:57.362Z,99336.34
2022-11-14T00:06:18.039Z,99340.72
2022-11-14T00:07:38.618Z,99331.84
2022-11-14T00:09:00.279Z,99334.03
2022-11-14T00:10:21.007Z,99331.16
2022-11-14T00:11:41.656Z,99326.72
2022-11-14T00:13:02.437Z,99338.56
2022-11-14T00:14:23.068Z,99339.16
2022-11-14T00:15:44.901Z,99332.03
2022-11-14T00:17:05.931Z,99335.50
2022-11-14T00:18:27.145Z,99337.72
2022-11-14T00:19:48.273Z,99343.69
2022-11-14T00:21:08.893Z,99354.91
2022-11-14T00:22:29.474Z,99359.28
2022-11-14T00:23:50.088Z,99357.38
2022-11-14T00:25:10.891Z,99355.91
2022-11-14T00:26:31.530Z,99344.44
2022-11-14T00:27:52.170Z,99338.56
2022-11-14T00:29:14.420Z,99320.47
2022-11-14T00:30:35.188Z,99330.66
2022-11-14T00:31:55.826Z,99335.66
2022-11-14T00:33:20.390Z,99325.47
2022-11-14T00:34:41.318Z,99325.66
2022-11-14T00:36:01.934Z,99321.59
2022-11-14T00:37:22.403Z,99327.81
2022-11-14T00:38:42.960Z,99334.28
2022-11-14T00:40:04.234Z,99325.53
2022-11-14T00:41:25.414Z,99332.47
2022-11-14T00:42:46.166Z,99321.28
2022-11-14T00:44:07.184Z,99328.28
2022-11-14T00:45:28.529Z,99336.06
2022-11-14T00:46:49.567Z,99333.53
2022-11-14T00:48:10.221Z,99329.25
2022-11-14T00:49:31.058Z,99339.72
2022-11-14T00:50:51.696Z,99323.88
2022-11-14T00:52:12.559Z,99322.06
2022-11-14T00:53:33.137Z,99319.47
2022-11-14T00:54:53.738Z,99329.06
2022-11-14T00:56:14.683Z,99325.66
2022-11-14T00:57:35.340Z,99320.31
2022-11-14T00:58:56.303Z,99320.09
2022-11-14T01:00:17.008Z,99318.34
2022-11-14T01:01:37.642Z,99315.81
2022-11-14T01:02:58.314Z,99312.47
2022-11-14T01:04:18.900Z,99306.25
2022-11-14T01:05:44.544Z,99302.84
2022-11-14T01:07:05.354Z,99299.34
2022-11-14T01:08:26.348Z,99299.09
2022-11-14T01:09:47.005Z,99300.75
2022-11-14T01:11:12.979Z,99292.91
2022-11-14T01:12:34.502Z,99298.06
2022-11-14T01:13:55.331Z,99295.41
2022-11-14T01:15:16.180Z,99293.53
2022-11-14T01:16:36.850Z,99291.72
2022-11-14T01:17:57.487Z,99286.63
2022-11-14T01:19:17.962Z,99286.56
2022-11-14T01:20:40.819Z,99283.13
2022-11-14T01:22:05.868Z,99283.03
2022-11-14T01:23:27.512Z,99283.84
2022-11-14T01:24:48.515Z,99273.41
2022-11-14T01:26:12.270Z,99280.28
2022-11-14T01:27:32.828Z,99273.38
2022-11-14T01:28:53.826Z,99271.81
2022-11-14T01:30:14.360Z,99275.44
2022-11-14T01:31:34.890Z,99268.34
2022-11-14T01:32:55.553Z,99263.88
2022-11-14T01:34:16.345Z,99266.28
2022-11-14T01:35:38.593Z,99270.47
2022-11-14T01:36:59.122Z,99267.91
2022-11-14T01:38:19.745Z,99269.66
2022-11-14T01:39:40.459Z,99267.84
2022-11-14T01:41:01.817Z,99251.34
2022-11-14T01:42:26.945Z,99256.09
2022-11-14T01:43:49.075Z,99257.75
2022-11-14T01:45:47.058Z,99256.06
2022-11-14T01:47:07.694Z,99255.69
2022-11-14T01:48:45.649Z,99266.97
2022-11-14T01:50:06.647Z,99251.13
2022-11-14T01:51:39.090Z,99258.84
2022-11-14T01:52:59.739Z,99248.25
2022-11-14T01:54:26.366Z,99242.19
2022-11-14T01:55:47.350Z,99240.44
2022-11-14T01:57:09.453Z,99242.13
2022-11-14T01:58:32.091Z,99240.06
2022-11-14T01:59:58.165Z,99238.38
2022-11-14T02:01:47.190Z,99226.69
2022-11-14T02:03:07.899Z,99225.16
2022-11-14T02:04:33.301Z,99222.59
2022-11-14T02:05:55.110Z,99220.84
2022-11-14T02:07:16.821Z,99213.06
2022-11-14T02:08:38.018Z,99219.78
2022-11-14T02:10:00.744Z,99218.22
2022-11-14T02:11:21.588Z,99212.19
2022-11-14T02:12:42.713Z,99206.75
2022-11-14T02:14:04.224Z,99207.91
2022-11-14T02:15:26.115Z,99195.00
2022-11-14T02:17:01.054Z,99195.09
2022-11-14T02:18:28.163Z,99193.34
2022-11-14T02:19:52.286Z,99190.88
2022-11-14T02:21:13.236Z,99192.47
2022-11-14T02:22:33.930Z,99197.75
2022-11-14T02:23:54.893Z,99194.94
2022-11-14T02:25:18.039Z,99197.66
2022-11-14T02:26:38.994Z,99181.31
2022-11-14T02:28:01.042Z,99187.25
2022-11-14T02:29:21.645Z,99180.91
2022-11-14T02:30:42.226Z,99180.50
2022-11-14T02:32:09.481Z,99178.81
2022-11-14T02:33:31.503Z,99177.56
2022-11-14T02:34:52.266Z,99188.88
2022-11-14T02:36:12.740Z,99177.59
2022-11-14T02:37:33.292Z,99188.06
2022-11-14T02:38:53.836Z,99186.25
2022-11-14T02:40:14.575Z,99180.25
2022-11-14T02:41:35.252Z,99175.03
2022-11-14T02:42:56.061Z,99181.41
2022-11-14T02:44:18.102Z,99175.06
2022-11-14T02:45:38.994Z,99173.41
2022-11-14T02:46:59.547Z,99182.13
2022-11-14T02:48:20.545Z,99181.78
2022-11-14T02:49:41.247Z,99187.69
2022-11-14T02:51:02.073Z,99179.97
2022-11-14T02:52:22.658Z,99187.97
2022-11-14T02:53:43.564Z,99176.72
2022-11-14T02:55:05.676Z,99183.59
2022-11-14T02:56:26.647Z,99179.91
2022-11-14T02:57:47.437Z,99191.22
2022-11-14T02:59:08.098Z,99191.78
2022-11-14T03:00:28.698Z,99181.53
2022-11-14T03:01:49.419Z,99190.34
2022-11-14T03:03:10.039Z,99193.91
2022-11-14T03:04:30.680Z,99192.44
2022-11-14T03:05:53.362Z,99188.97
2022-11-14T03:07:13.786Z,99193.44
2022-11-14T03:08:34.789Z,99180.50
2022-11-14T03:09:55.363Z,99184.19
2022-11-14T03:11:16.109Z,99177.31
2022-11-14T03:12:37.576Z,99176.28
2022-11-14T03:14:00.091Z,99171.94
2022-11-14T03:15:21.049Z,99181.47
2022-11-14T03:16:41.848Z,99167.72
2022-11-14T03:18:02.481Z,99174.59
2022-11-14T03:19:23.235Z,99171.31
2022-11-14T03:20:43.805Z,99174.88
2022-11-14T03:22:04.781Z,99189.47
2022-11-14T03:23:25.731Z,99190.44
2022-11-14T03:24:46.336Z,99186.19
2022-11-14T03:26:09.373Z,99184.66
2022-11-14T03:27:30.304Z,99190.69
2022-11-14T03:28:50.848Z,99180.28
2022-11-14T03:30:11.807Z,99182.91
2022-11-14T03:31:32.812Z,99181.22
2022-11-14T03:32:53.612Z,99179.31
2022-11-14T03:34:14.380Z,99181.13
2022-11-14T03:35:35.007Z,99184.53
2022-11-14T03:36:55.780Z,99179.22
2022-11-14T03:38:17.125Z,99185.22
2022-11-14T03:39:38.215Z,99178.38
2022-11-14T03:40:59.976Z,99179.19
2022-11-14T03:42:20.734Z,99183.72
2022-11-14T03:43:41.261Z,99181.03
2022-11-14T03:45:02.579Z,99179.56
2022-11-14T03:46:23.660Z,99184.94
2022-11-14T03:47:44.294Z,99176.88
2022-11-14T03:49:05.498Z,99171.56
2022-11-14T03:50:26.474Z,99173.38
2022-11-14T03:51:48.063Z,99172.66
2022-11-14T03:53:09.558Z,99167.41
2022-11-14T03:54:30.589Z,99167.53
2022-11-14T03:55:52.447Z,99162.22
2022-11-14T03:57:12.969Z,99163.97
2022-11-14T03:58:33.843Z,99161.50
2022-11-14T03:59:54.727Z,99152.84
2022-11-14T04:01:15.545Z,99152.09
2022-11-14T04:02:36.154Z,99147.84
2022-11-14T04:03:57.074Z,99146.75
2022-11-14T04:05:17.640Z,99135.56
2022-11-14T04:06:38.397Z,99144.34
2022-11-14T04:07:59.147Z,99137.50
2022-11-14T04:09:19.841Z,99130.56
2022-11-14T04:10:41.306Z,99125.22
2022-11-14T04:12:02.151Z,99127.06
2022-11-14T04:13:22.689Z,99119.94
2022-11-14T04:14:43.450Z,99112.06
2022-11-14T04:16:04.445Z,99112.88
2022-11-14T04:17:25.305Z,99114.47
2022-11-14T04:18:46.116Z,99112.72
2022-11-14T04:20:07.172Z,99109.38
2022-11-14T04:21:28.238Z,99109.28
2022-11-14T04:22:48.978Z,99110.22
2022-11-14T04:24:11.229Z,99115.56
2022-11-14T04:25:32.575Z,99114.66
2022-11-14T04:26:53.437Z,99108.63
2022-11-14T04:28:14.460Z,99103.69
2022-11-14T04:29:35.217Z,99105.47
2022-11-14T04:30:56.404Z,99104.78
2022-11-14T04:32:17.350Z,99109.91
2022-11-14T04:33:38.334Z,99105.59
2022-11-14T04:34:59.240Z,99105.66
2022-11-14T04:36:20.018Z,99106.31
2022-11-14T04:37:40.765Z,99110.88
2022-11-14T04:39:01.542Z,99103.78
2022-11-14T04:40:22.205Z,99108.03
2022-11-14T04:41:42.981Z,99104.41
2022-11-14T04:43:03.473Z,99115.53
2022-11-14T04:44:24.046Z,99118.06
2022-11-14T04:45:44.649Z,99129.41
2022-11-14T04:47:05.309Z,99121.69
2022-11-14T04:48:26.150Z,99115.69
2022-11-14T04:49:46.881Z,99120.91
2022-11-14T04:51:07.600Z,99110.31
2022-11-14T04:52:28.172Z,99109.59
2022-11-14T04:53:48.724Z,99110.44
2022-11-14T04:55:09.746Z,99106.09
2022-11-14T04:56:30.310Z,99115.63
2022-11-14T04:57:57.888Z,99116.91
2022-11-14T04:59:21.049Z,99118.56
2022-11-14T05:00:42.548Z,99123.38
2022-11-14T05:02:03.484Z,99106.94
2022-11-14T05:03:24.974Z,99121.47
2022-11-14T05:04:47.207Z,99126.66
2022-11-14T05:06:08.301Z,99123.97
2022-11-14T05:07:29.190Z,99117.13
2022-11-14T05:08:49.743Z,99112.22
2022-11-14T05:10:10.479Z,99106.06
2022-11-14T05:11:31.144Z,99103.34
2022-11-14T05:12:55.305Z,99099.03
2022-11-14T05:14:16.080Z,99097.09
2022-11-14T05:15:36.718Z,99096.13
2022-11-14T05:16:58.552Z,99086.56
2022-11-14T05:18:19.444Z,99080.38
2022-11-14T05:19:40.208Z,99090.16
2022-11-14T05:21:01.427Z,99074.41
2022-11-14T05:22:22.027Z,99070.78
2022-11-14T05:23:42.880Z,99056.41
2022-11-14T05:25:03.847Z,99066.91
2022-11-14T05:26:24.610Z,99060.66
2022-11-14T05:27:45.334Z,99052.63
2022-11-14T05:29:06.803Z,99056.84
2022-11-14T05:30:27.354Z,99046.94
2022-11-14T05:31:48.016Z,99048.16
2022-11-14T05:33:08.656Z,99065.69
2022-11-14T05:34:29.339Z,99061.44
2022-11-14T05:35:50.157Z,99068.59
2022-11-14T05:37:10.954Z,99068.59
2022-11-14T05:38:32.036Z,99073.03
2022-11-14T05:39:52.976Z,99068.69
2022-11-14T05:41:16.437Z,99071.22
2022-11-14T05:42:37.192Z,99080.03
2022-11-14T05:43:57.800Z,99076.63
2022-11-14T05:45:18.763Z,99074.91
2022-11-14T05:46:39.493Z,99074.19
2022-11-14T05:48:00.094Z,99079.50
2022-11-14T05:49:22.211Z,99067.44
2022-11-14T05:50:42.853Z,99075.41
2022-11-14T05:52:03.787Z,99076.91
2022-11-14T05:53:24.732Z,99077.66
2022-11-14T05:54:45.653Z,99071.75
2022-11-14T05:56:10.431Z,99073.34
2022-11-14T05:57:31.076Z,99075.84
2022-11-14T05:58:51.964Z,99069.91
2022-11-14T06:00:13.042Z,99066.41
2022-11-14T06:01:33.992Z,99066.09
2022-11-14T06:02:55.515Z,99074.97
2022-11-14T06:04:16.404Z,99062.72
2022-11-14T06:05:37.441Z,99065.28
2022-11-14T06:06:58.375Z,99065.44
2022-11-14T06:08:19.358Z,99073.28
2022-11-14T06:09:40.084Z,99061.97
2022-11-14T06:11:14.284Z,99055.09
2022-11-14T06:12:34.949Z,99054.94
2022-11-14T06:13:55.485Z,99057.34
2022-11-14T06:15:16.364Z,99053.09
2022-11-14T06:16:36.902Z,99044.66
2022-11-14T06:17:58.305Z,99048.25
2022-11-14T06:19:18.980Z,99047.66
2022-11-14T06:20:39.595Z,99051.28
2022-11-14T06:22:00.095Z,99041.84
2022-11-14T06:23:24.740Z,99052.25
2022-11-14T06:24:45.688Z,99049.66
2022-11-14T06:26:10.837Z,99056.59
2022-11-14T06:27:31.888Z,99054.00
2022-11-14T06:28:53.975Z,99048.81
2022-11-14T06:30:14.756Z,99042.78
2022-11-14T06:31:35.335Z,99053.25
2022-11-14T06:33:01.349Z,99049.88
2022-11-14T06:34:22.057Z,99049.91
2022-11-14T06:35:42.698Z,99045.63
2022-11-14T06:37:04.712Z,99056.81
2022-11-14T06:38:25.620Z,99055.06
2022-11-14T06:39:46.149Z,99049.72
2022-11-14T06:41:08.216Z,99048.88
2022-11-14T06:42:29.055Z,99056.59
2022-11-14T06:43:52.892Z,99049.66
2022-11-14T06:45:13.506Z,99048.75
2022-11-14T06:46:34.256Z,99050.41
2022-11-14T06:47:58.792Z,99050.22
2022-11-14T06:49:19.652Z,99054.56
2022-11-14T06:50:40.241Z,99051.13
2022-11-14T06:52:00.828Z,99049.38
2022-11-14T06:53:22.149Z,99052.69
2022-11-14T06:54:43.020Z,99046.66
2022-11-14T06:56:09.639Z,99053.44
2022-11-14T06:57:30.544Z,99055.28
2022-11-14T06:58:51.375Z,99055.25
2022-11-14T07:00:12.481Z,99055.28
2022-11-14T07:01:33.259Z,99039.72
2022-11-14T07:02:53.988Z,99052.66
2022-11-14T07:04:14.556Z,99048.41
2022-11-14T07:05:35.151Z,99051.59
2022-11-14T07:06:55.864Z,99048.03
2022-11-14T07:08:20.883Z,99051.69
2022-11-14T07:09:41.804Z,99048.97
2022-11-14T07:11:08.020Z,99048.78
2022-11-14T07:12:29.479Z,99054.72
2022-11-14T07:13:51.934Z,99056.28
2022-11-14T07:15:12.628Z,99062.13
2022-11-14T07:16:35.286Z,99055.84
2022-11-14T07:17:56.076Z,99060.94
2022-11-14T07:19:16.834Z,99065.28
2022-11-14T07:20:37.654Z,99061.59
2022-11-14T07:21:58.654Z,99064.09
2022-11-14T07:23:22.815Z,99061.88
2022-11-14T07:24:43.678Z,99057.34
2022-11-14T07:26:09.516Z,99057.75
2022-11-14T07:27:30.317Z,99059.88
2022-11-14T07:28:53.697Z,99065.03
2022-11-14T07:30:15.492Z,99065.06
2022-11-14T07:31:36.486Z,99061.31
2022-11-14T07:32:58.830Z,99061.69
2022-11-14T07:34:19.655Z,99063.34
2022-11-14T07:35:40.615Z,99063.31
2022-11-14T07:37:01.151Z,99066.59
2022-11-14T07:38:21.561Z,99070.91
2022-11-14T07:39:42.328Z,99067.69
2022-11-14T07:41:06.547Z,99078.53
2022-11-14T07:42:29.760Z,99075.47
2022-11-14T07:43:50.667Z,99075.34
2022-11-14T07:45:12.212Z,99072.78
2022-11-14T07:46:33.171Z,99073.53
2022-11-14T07:47:56.186Z,99078.16
2022-11-14T07:49:16.841Z,99088.50
2022-11-14T07:50:37.631Z,99074.72
2022-11-14T07:51:58.431Z,99080.53
2022-11-14T07:53:19.323Z,99087.75
2022-11-14T07:54:40.311Z,99080.47
2022-11-14T07:56:06.235Z,99078.91
2022-11-14T07:57:27.311Z,99092.44
2022-11-14T07:58:48.142Z,99085.50
2022-11-14T08:00:10.166Z,99090.13
2022-11-14T08:01:31.048Z,99090.88
2022-11-14T08:02:52.014Z,99087.28
2022-11-14T08:04:12.766Z,99090.56
2022-11-14T08:05:33.716Z,99083.09
2022-11-14T08:06:54.340Z,99082.06
2022-11-14T08:08:14.913Z,99079.06
2022-11-14T08:09:35.819Z,99079.69
2022-11-14T08:10:57.951Z,99079.34
2022-11-14T08:12:18.641Z,99080.69
2022-11-14T08:13:39.360Z,99083.00
2022-11-14T08:15:00.227Z,99086.34
2022-11-14T08:16:20.890Z,99082.41
2022-11-14T08:17:41.649Z,99091.31
2022-11-14T08:19:02.293Z,99091.44
2022-11-14T08:20:22.884Z,99093.75
2022-11-14T08:21:44.266Z,99090.94
2022-11-14T08:23:09.860Z,99090.66
2022-11-14T08:24:30.670Z,99088.19
2022-11-14T08:25:51.468Z,99088.28
2022-11-14T08:27:12.304Z,99086.13
2022-11-14T08:28:33.182Z,99094.88
2022-11-14T08:29:54.680Z,99090.56
2022-11-14T08:31:15.409Z,99084.78
2022-11-14T08:32:36.366Z,99095.72
2022-11-14T08:33:56.941Z,99094.22
2022-11-14T08:35:17.797Z,99091.06
2022-11-14T08:36:38.412Z,99093.44
2022-11-14T08:38:00.403Z,99080.94
2022-11-14T08:39:21.316Z,99082.75
2022-11-14T08:40:41.941Z,99091.00
2022-11-14T08:42:02.606Z,99090.44
2022-11-14T08:43:23.353Z,99087.47
2022-11-14T08:44:47.992Z,99098.25
2022-11-14T08:46:13.028Z,99087.53
2022-11-14T08:47:33.774Z,99092.63
2022-11-14T08:48:55.265Z,99092.97
2022-11-14T08:50:15.794Z,99086.41
2022-11-14T08:51:36.980Z,99096.00
2022-11-14T08:52:58.128Z,99095.69
2022-11-14T08:54:19.522Z,99094.69
2022-11-14T08:55:49.133Z,99093.84
2022-11-14T08:57:11.857Z,99103.16
2022-11-14T08:58:33.342Z,99098.06
2022-11-14T08:59:55.640Z,99108.59
2022-11-14T09:01:16.758Z,99101.66
2022-11-14T09:02:37.392Z,99104.13
2022-11-14T09:04:00.016Z,99104.94
2022-11-14T09:05:22.051Z,99101.38
2022-11-14T09:06:43.044Z,99109.84
2022-11-14T09:08:04.106Z,99112.69
2022-11-14T09:09:25.007Z,99115.56
2022-11-14T09:10:45.629Z,99116.06
2022-11-14T09:12:06.163Z,99124.00
2022-11-14T09:13:27.579Z,99123.16
2022-11-14T09:14:49.254Z,99122.19
2022-11-14T09:16:09.741Z,99130.13
2022-11-14T09:17:30.527Z,99124.81
2022-11-14T09:18:51.129Z,99131.03
2022-11-14T09:20:11.745Z,99123.16
2022-11-14T09:21:32.436Z,99130.06
2022-11-14T09:22:53.388Z,99132.00
2022-11-14T09:24:14.240Z,99132.63
2022-11-14T09:25:36.032Z,99136.66
2022-11-14T09:26:57.283Z,99137.56
2022-11-14T09:28:18.338Z,99134.50
2022-11-14T09:29:39.006Z,99132.53
2022-11-14T09:31:04.243Z,99139.31
2022-11-14T09:32:25.480Z,99143.28
2022-11-14T09:33:46.165Z,99145.59
2022-11-14T09:35:07.300Z,99135.00
2022-11-14T09:36:28.194Z,99144.25
2022-11-14T09:37:49.007Z,99143.03
2022-11-14T09:39:09.690Z,99137.13
2022-11-14T09:40:39.983Z,99136.91
2022-11-14T09:42:06.065Z,99138.69
2022-11-14T09:43:45.240Z,99142.38
2022-11-14T09:45:12.372Z,99138.41
2022-11-14T09:46:44.932Z,99133.41
2022-11-14T09:48:16.408Z,99137.03
2022-11-14T09:49:45.358Z,99137.22
2022-11-14T09:51:09.598Z,99135.00
2022-11-14T09:53:10.414Z,99145.13
2022-11-14T09:54:44.365Z,99139.13
2022-11-14T09:56:05.826Z,99130.75
2022-11-14T09:57:27.235Z,99139.34
2022-11-14T09:58:48.235Z,99127.59
2022-11-14T10:00:14.068Z,99131.00
2022-11-14T10:02:01.584Z,99129.69
2022-11-14T10:03:29.454Z,99124.88
2022-11-14T10:05:13.753Z,99133.13
2022-11-14T10:07:09.490Z,99124.84
2022-11-14T10:08:55.094Z,99131.22
2022-11-14T10:10:39.112Z,99122.38
2022-11-14T10:12:08.673Z,99120.91
2022-11-14T10:13:53.926Z,99120.19
2022-11-14T10:15:36.273Z,99118.34
2022-11-14T10:17:23.763Z,99108.53
2022-11-14T10:18:48.448Z,99119.41
2022-11-14T10:20:18.821Z,99114.44
2022-11-14T10:22:19.816Z,99119.16
2022-11-14T10:23:59.065Z,99116.25
2022-11-14T10:25:24.445Z,99104.91
2022-11-14T10:27:03.259Z,99108.19
2022-11-14T10:28:44.767Z,99117.28
2022-11-14T10:30:14.451Z,99101.50
2022-11-14T10:31:52.629Z,99097.88
2022-11-14T10:33:42.980Z,99103.41
2022-11-14T10:35:18.333Z,99097.78
2022-11-14T10:37:07.351Z,99099.41
2022-11-14T10:39:07.442Z,99097.53
2022-11-14T10:40:40.818Z,99095.94
2022-11-14T10:42:09.797Z,99101.13
2022-11-14T10:43:43.318Z,99103.22
2022-11-14T10:45:03.960Z,99098.59
2022-11-14T10:46:33.316Z,99098.88
2022-11-14T10:48:15.781Z,99094.06
2022-11-14T10:49:37.574Z,99094.22
2022-11-14T10:51:18.030Z,99097.34
2022-11-14T10:52:42.934Z,99089.97
2022-11-14T11:00:35.467Z,99074.84
2022-11-14T11:01:58.435Z,99074.63
2022-11-14T11:03:19.226Z,99068.38
2022-11-14T11:04:42.082Z,99077.19
2022-11-14T11:06:03.012Z,99068.94
2022-11-14T11:07:44.738Z,99071.56
2022-11-14T11:09:32.127Z,99072.75
2022-11-14T11:11:18.001Z,99072.81
2022-11-14T11:12:45.776Z,99062.56
2022-11-14T11:14:17.795Z,99064.59
2022-11-14T11:15:41.289Z,99079.75
2022-11-14T11:17:11.643Z,99073.34
2022-11-14T11:18:34.669Z,99067.16
2022-11-14T11:19:55.531Z,99068.97
2022-11-14T11:21:19.822Z,99066.38
2022-11-14T11:22:40.719Z,99066.66
2022-11-14T11:24:01.403Z,99066.16
2022-11-14T11:25:27.868Z,99055.63
2022-11-14T11:26:48.465Z,99072.09
2022-11-14T11:28:21.691Z,99062.59
2022-11-14T11:29:42.679Z,99070.25
2022-11-14T11:31:06.653Z,99064.16
2022-11-14T11:32:27.637Z,99063.53
2022-11-14T11:33:48.333Z,99067.78
2022-11-14T11:35:15.168Z,99051.41
2022-11-14T11:36:41.513Z,99055.53
2022-11-14T11:38:03.098Z,99065.25
2022-11-14T11:39:29.142Z,99058.53
2022-11-14T11:40:52.966Z,99058.69
2022-11-14T11:42:20.349Z,99062.72
2022-11-14T11:43:59.181Z,99062.00
2022-11-14T11:45:20.661Z,99053.09
2022-11-14T11:46:53.693Z,99056.19
2022-11-14T11:48:20.260Z,99057.81
2022-11-14T11:49:41.332Z,99057.81
2022-11-14T11:51:04.497Z,99055.91
2022-11-14T11:52:35.796Z,99051.94
2022-11-14T11:54:03.372Z,99047.31
2022-11-14T11:55:34.249Z,99050.34
2022-11-14T11:57:09.835Z,99047.78
2022-11-14T11:58:40.997Z,99048.56
2022-11-14T12:00:07.803Z,99048.41
2022-11-14T12:01:29.442Z,99051.41
2022-11-14T12:02:52.877Z,99050.47
2022-11-14T12:04:13.653Z,99049.72
2022-11-14T12:05:44.529Z,99033.09
2022-11-14T12:07:12.372Z,99046.00
2022-11-14T12:08:39.145Z,99053.38
2022-11-14T12:10:12.092Z,99039.84
2022-11-14T12:11:37.094Z,99047.91
2022-11-14T12:13:11.043Z,99040.84
2022-11-14T12:14:47.579Z,99041.16
2022-11-14T12:16:38.374Z,99047.09
2022-11-14T12:18:13.813Z,99039.63
2022-11-14T12:19:59.024Z,99043.25
2022-11-14T12:21:44.758Z,99048.59
2022-11-14T12:23:37.600Z,99044.25
2022-11-14T12:25:01.078Z,99051.06
2022-11-14T12:26:34.016Z,99057.94
2022-11-14T12:27:57.618Z,99047.50
2022-11-14T12:29:50.253Z,99048.81
2022-11-14T12:31:15.218Z,99037.22
2022-11-14T12:32:47.736Z,99038.75
2022-11-14T12:34:32.212Z,99040.72
2022-11-14T12:35:59.745Z,99043.22
2022-11-14T12:37:33.344Z,99032.84
2022-11-14T12:38:55.346Z,99036.28
2022-11-14T12:40:32.672Z,99028.63
2022-11-14T12:42:10.044Z,99026.34
2022-11-14T12:43:42.570Z,99030.69
2022-11-14T12:45:03.962Z,99026.28
2022-11-14T12:46:24.855Z,99024.66
2022-11-14T12:48:26.289Z,99027.03
2022-11-14T12:49:46.779Z,99031.53
2022-11-14T12:51:25.770Z,99026.25
2022-11-14T12:52:49.011Z,99023.44
2022-11-14T12:54:42.727Z,99031.84
2022-11-14T12:56:26.109Z,99037.94
2022-11-14T12:58:05.000Z,99037.66
2022-11-14T12:59:29.146Z,99033.66
2022-11-14T13:00:49.831Z,99028.56
2022-11-14T13:02:35.345Z,99026.59
2022-11-14T13:04:01.929Z,99019.63
2022-11-14T13:05:47.618Z,99031.19
2022-11-14T13:07:48.975Z,99020.06
2022-11-14T13:09:32.197Z,99016.41
2022-11-14T13:10:52.879Z,99027.44
2022-11-14T13:12:51.263Z,99019.53
2022-11-14T13:14:30.863Z,99019.88
2022-11-14T13:16:12.358Z,99023.28
2022-11-14T13:17:53.144Z,99024.38
2022-11-14T13:19:39.326Z,99018.59
2022-11-14T13:21:43.776Z,99017.41
2022-11-14T13:23:24.935Z,99006.44
2022-11-14T13:25:01.702Z,99017.59
2022-11-14T13:26:25.782Z,99018.00
2022-11-14T13:29:40.207Z,99017.31
2022-11-14T13:31:16.294Z,99009.34
2022-11-14T13:32:43.011Z,99018.53
2022-11-14T13:34:40.935Z,99021.16
2022-11-14T13:36:05.868Z,99021.41
2022-11-14T13:38:00.791Z,99023.88
2022-11-14T13:39:41.624Z,99019.28
2022-11-14T13:41:11.233Z,99018.00
2022-11-14T13:42:59.847Z,99015.19
2022-11-14T13:44:38.588Z,99010.78
2022-11-14T13:46:17.641Z,99009.00
2022-11-14T13:48:05.029Z,99009.59
2022-11-14T13:49:46.654Z,99012.91
2022-11-14T13:51:36.727Z,99000.84
2022-11-14T13:52:52.773Z,99001.34
2022-11-14T13:54:18.083Z,99004.84
2022-11-14T13:55:56.320Z,99006.47
2022-11-14T13:57:37.221Z,99002.78
2022-11-14T13:59:14.390Z,99001.34
2022-11-14T14:00:54.126Z,99007.41
2022-11-14T14:02:47.526Z,99006.38
2022-11-14T14:04:36.744Z,99012.22
2022-11-14T14:06:53.569Z,99007.63
2022-11-14T14:08:29.255Z,99003.22
2022-11-14T14:09:52.665Z,99001.59
2022-11-14T14:11:28.173Z,99013.00
2022-11-14T14:13:16.359Z,99015.38
2022-11-14T14:14:56.608Z,99018.91
2022-11-14T14:16:39.225Z,99015.81
2022-11-14T14:18:43.099Z,99014.44
2022-11-14T14:20:18.756Z,99014.59
2022-11-14T14:22:19.108Z,99008.94
2022-11-14T14:23:43.533Z,99009.44
2022-11-14T14:25:27.151Z,99017.69
2022-11-14T14:27:14.634Z,99015.91
2022-11-14T14:28:41.014Z,99008.38
2022-11-14T14:30:07.211Z,99010.81
2022-11-14T14:31:39.226Z,99014.50
2022-11-14T14:33:14.819Z,99004.22
2022-11-14T14:34:35.607Z,99016.56
2022-11-14T14:35:56.121Z,99015.28
2022-11-14T14:37:27.977Z,99013.84
2022-11-14T14:38:49.463Z,99014.31
2022-11-14T14:40:23.849Z,99014.00
2022-11-14T14:41:44.840Z,99013.16
2022-11-14T14:43:06.464Z,99012.25
2022-11-14T14:44:40.254Z,99007.63
2022-11-14T14:46:01.768Z,99013.06
2022-11-14T14:47:42.746Z,99008.06
2022-11-14T14:49:04.403Z,99011.56
2022-11-14T14:50:29.919Z,99018.09
2022-11-14T14:51:54.422Z,99013.44
2022-11-14T14:53:33.486Z,99011.28
2022-11-14T14:54:55.822Z,99019.13
2022-11-14T14:56:21.481Z,99019.44
2022-11-14T14:57:42.721Z,99019.28
2022-11-14T14:59:16.351Z,99020.22
2022-11-14T15:00:37.498Z,99016.81
2022-11-14T15:01:58.577Z,99020.16
2022-11-14T15:03:19.820Z,99021.84
2022-11-14T15:04:41.220Z,99021.50
2022-11-14T15:06:05.231Z,99020.06
2022-11-14T15:07:28.468Z,99025.81
2022-11-14T15:08:49.589Z,99024.13
2022-11-14T15:10:22.030Z,99020.06
2022-11-14T15:11:45.572Z,99021.81
2022-11-14T15:13:07.987Z,99019.78
2022-11-14T15:14:33.047Z,99018.44
2022-11-14T15:15:54.073Z,99016.41
2022-11-14T15:17:15.617Z,99022.69
2022-11-14T15:18:37.413Z,99019.53
2022-11-14T15:20:01.748Z,99012.50
2022-11-14T15:21:28.237Z,99018.84
2022-11-14T15:23:10.336Z,99017.25
2022-11-14T15:24:31.373Z,99015.13
2022-11-14T15:26:11.351Z,99012.41
2022-11-14T15:27:33.193Z,99019.09
2022-11-14T15:29:06.369Z,99020.63
2022-11-14T15:30:34.674Z,99024.00
2022-11-14T15:31:58.998Z,99024.00
2022-11-14T15:33:34.322Z,99026.47
2022-11-14T15:35:20.186Z,99029.28
2022-11-14T15:37:18.620Z,99023.84
2022-11-14T15:38:46.412Z,99026.84
2022-11-14T15:40:21.121Z,99025.09
2022-11-14T15:41:42.066Z,99030.19
2022-11-14T15:43:41.389Z,99033.59
2022-11-14T15:45:21.391Z,99033.22
2022-11-14T15:46:49.607Z,99026.84
2022-11-14T15:48:16.308Z,99033.88
2022-11-14T15:49:38.252Z,99031.88
2022-11-14T15:50:59.195Z,99035.31
2022-11-14T15:52:40.212Z,99031.72
2022-11-14T15:54:01.015Z,99029.25
2022-11-14T15:55:23.792Z,99032.03
2022-11-14T15:56:44.303Z,99035.59
2022-11-14T15:59:50.518Z,99044.50
2022-11-14T16:01:17.873Z,99039.84
2022-11-14T16:02:46.427Z,99050.53
2022-11-14T16:04:16.997Z,99046.97
2022-11-14T16:05:37.611Z,99044.59
2022-11-14T16:06:58.583Z,99038.00
2022-11-14T16:08:20.048Z,99048.59
2022-11-14T16:09:41.179Z,99047.19
2022-11-14T16:11:01.733Z,99044.47
2022-11-14T16:12:22.329Z,99046.94
2022-11-14T16:13:43.308Z,99047.53
2022-11-14T16:15:04.578Z,99038.72
2022-11-14T16:16:25.522Z,99044.81
2022-11-14T16:17:48.279Z,99055.03
2022-11-14T16:19:12.579Z,99048.31
2022-11-14T16:20:37.833Z,99051.47
2022-11-14T16:22:02.616Z,99059.19
2022-11-14T16:23:23.491Z,99051.66
2022-11-14T16:24:44.463Z,99056.22
2022-11-14T16:26:05.254Z,99055.91
2022-11-14T16:27:26.664Z,99058.34
2022-11-14T16:28:47.623Z,99051.16
2022-11-14T16:30:10.088Z,99051.00
2022-11-14T16:31:30.956Z,99050.38
2022-11-14T16:32:52.456Z,99053.47
2022-11-14T16:34:19.920Z,99057.66
2022-11-14T16:35:40.736Z,99051.91
2022-11-14T16:37:02.598Z,99056.56
2022-11-14T16:38:23.143Z,99049.47
2022-11-14T16:39:44.112Z,99051.41
2022-11-14T16:41:09.235Z,99059.56
2022-11-14T16:42:30.310Z,99056.31
2022-11-14T16:43:54.418Z,99061.34
2022-11-14T16:45:16.282Z,99062.06
2022-11-14T16:46:38.757Z,99056.00
2022-11-14T16:47:59.594Z,99069.00
2022-11-14T16:49:20.412Z,99069.94
2022-11-14T16:50:41.024Z,99073.19
2022-11-14T16:52:06.968Z,99078.44
2022-11-14T16:53:28.762Z,99065.63
2022-11-14T16:54:50.236Z,99079.25